Time;durP1;ratioP1;P1;durP2;ratioP2;P2;SDS_P1;SDS_P2;PMS_P1;PMS_P2;Temp;Humidity;BMP_temperature;BMP_pressure;BME280_temperature;BME280_humidity;BME280_pressure;Samples;Min_cycle;Max_cycle;Signal;HPM_P1;HPM_P2
2023/05/09 00:01:35;;;;;;;34.92;32.13;;;;;;;;;;5114761;28;20398;-82
2023/05/09 00:04:01;;;;;;;37.00;34.00;;;;;;;;;;5113669;28;20106;-84
2023/05/09 00:06:28;;;;;;;38.88;35.65;;;;;;;;;;5113737;28;20043;-84
2023/05/09 00:08:54;;;;;;;52.53;46.15;;;;;;;;;;5114683;28;20040;-83
2023/05/09 00:11:21;;;;;;;66.45;54.28;;;;;;;;;;5096632;28;20048;-84
2023/05/09 00:13:47;;;;;;;48.00;43.33;;;;;;;;;;5113405;28;20039;-83
2023/05/09 00:16:14;;;;;;;49.85;45.03;;;;;;;;;;5114434;28;20043;-83
2023/05/09 00:18:41;;;;;;;54.00;48.45;;;;;;;;;;5096731;28;20048;-84
2023/05/09 00:21:08;;;;;;;56.80;50.70;;;;;;;;;;5112990;28;20055;-83
2023/05/09 00:23:34;;;;;;;52.90;47.60;;;;;;;;;;5113743;28;20039;-83
2023/05/09 00:26:01;;;;;;;53.00;47.55;;;;;;;;;;5113374;28;20086;-83
2023/05/09 00:28:27;;;;;;;57.60;50.83;;;;;;;;;;5114374;28;20399;-83
2023/05/09 00:30:53;;;;;;;121.13;71.60;;;;;;;;;;5113332;28;20055;-83
2023/05/09 00:33:19;;;;;;;63.63;55.42;;;;;;;;;;5112714;28;20097;-83
2023/05/09 00:35:45;;;;;;;58.88;52.47;;;;;;;;;;5113086;28;20044;-83
2023/05/09 00:38:12;;;;;;;154.20;79.47;;;;;;;;;;5113560;28;20228;-83
2023/05/09 00:40:38;;;;;;;64.28;56.10;;;;;;;;;;5114057;28;20128;-83
2023/05/09 00:43:04;;;;;;;68.68;58.95;;;;;;;;;;5113834;28;20036;-83
2023/05/09 00:45:30;;;;;;;67.15;59.15;;;;;;;;;;5114005;28;20039;-83
2023/05/09 00:47:57;;;;;;;93.18;66.47;;;;;;;;;;5113070;28;20130;-83
2023/05/09 00:50:26;;;;;;;71.70;61.78;;;;;;;;;;5112765;28;20047;-83
2023/05/09 00:52:52;;;;;;;456.77;116.22;;;;;;;;;;5113065;28;20043;-83
2023/05/09 00:55:18;;;;;;;74.80;62.45;;;;;;;;;;5112724;28;20066;-83
2023/05/09 00:57:45;;;;;;;74.78;63.08;;;;;;;;;;5096092;28;20045;-83
2023/05/09 01:00:14;;;;;;;97.18;70.25;;;;;;;;;;5113005;28;20052;-87
2023/05/09 01:02:44;;;;;;;80.40;63.22;;;;;;;;;;5112898;28;20040;-84
2023/05/09 01:05:11;;;;;;;79.20;64.47;;;;;;;;;;5112849;28;20483;-87
2023/05/09 01:07:52;;;;;;;75.50;63.25;;;;;;;;;;5095580;28;20055;-87
2023/05/09 01:10:18;;;;;;;75.35;64.03;;;;;;;;;;5096250;28;20156;-82
2023/05/09 01:12:48;;;;;;;76.80;64.53;;;;;;;;;;5096012;28;20077;-83
2023/05/09 01:15:21;;;;;;;80.30;65.22;;;;;;;;;;5113946;28;20047;-87
2023/05/09 01:17:54;;;;;;;84.70;67.38;;;;;;;;;;5113052;28;20050;-84
2023/05/09 01:20:34;;;;;;;71.03;59.57;;;;;;;;;;5112666;28;20051;-83
2023/05/09 01:23:14;;;;;;;76.30;62.65;;;;;;;;;;5114007;28;20047;-84
2023/05/09 01:25:43;;;;;;;79.18;64.93;;;;;;;;;;5113293;28;20097;-83
2023/05/09 01:28:16;;;;;;;79.38;66.40;;;;;;;;;;5112901;28;20051;-84
2023/05/09 01:30:45;;;;;;;74.68;62.72;;;;;;;;;;5113133;28;20058;-84
2023/05/09 01:33:13;;;;;;;80.57;66.53;;;;;;;;;;5114938;28;20483;-84
2023/05/09 01:35:42;;;;;;;73.68;60.85;;;;;;;;;;5100527;28;20380;-83
2023/05/09 01:38:12;;;;;;;79.18;62.90;;;;;;;;;;5116573;28;20048;-83
2023/05/09 01:40:40;;;;;;;78.47;63.22;;;;;;;;;;5118366;28;20113;-83
2023/05/09 01:43:07;;;;;;;69.75;58.70;;;;;;;;;;5100302;28;20039;-83
2023/05/09 01:45:34;;;;;;;69.57;58.05;;;;;;;;;;5116465;28;20051;-83
2023/05/09 01:48:01;;;;;;;67.47;58.83;;;;;;;;;;5116147;28;20048;-83
2023/05/09 01:50:29;;;;;;;65.70;56.97;;;;;;;;;;5116329;28;20040;-84
2023/05/09 01:52:56;;;;;;;75.45;60.00;;;;;;;;;;5117122;28;20040;-83
2023/05/09 01:55:26;;;;;;;71.03;57.90;;;;;;;;;;5117162;28;20427;-83
2023/05/09 01:57:53;;;;;;;55.50;49.85;;;;;;;;;;5117042;28;20113;-83
2023/05/09 02:00:19;;;;;;;55.50;49.70;;;;;;;;;;5116461;28;20044;-83
2023/05/09 02:02:45;;;;;;;53.47;47.72;;;;;;;;;;5116342;28;20135;-84
2023/05/09 02:05:12;;;;;;;47.33;42.53;;;;;;;;;;5099398;28;20044;-83
2023/05/09 02:07:40;;;;;;;43.28;39.15;;;;;;;;;;5115768;28;20087;-83
2023/05/09 02:10:07;;;;;;;43.17;38.78;;;;;;;;;;5115895;28;20085;-83
2023/05/09 02:12:33;;;;;;;39.80;35.97;;;;;;;;;;5099301;28;20048;-83
2023/05/09 02:14:59;;;;;;;39.67;36.00;;;;;;;;;;5115716;28;20474;-83
2023/05/09 02:17:28;;;;;;;37.13;33.80;;;;;;;;;;5098899;28;20048;-84
2023/05/09 02:19:54;;;;;;;35.88;32.63;;;;;;;;;;5115758;28;20072;-84
2023/05/09 02:22:22;;;;;;;36.58;33.38;;;;;;;;;;5116545;28;20392;-83
2023/05/09 02:24:48;;;;;;;34.33;31.38;;;;;;;;;;5116710;28;20052;-83
2023/05/09 02:27:15;;;;;;;31.40;28.90;;;;;;;;;;5116431;28;20051;-83
2023/05/09 02:29:47;;;;;;;31.10;28.25;;;;;;;;;;5116543;28;20052;-84
2023/05/09 02:32:21;;;;;;;30.70;28.13;;;;;;;;;;5115404;28;20039;-83
2023/05/09 02:34:48;;;;;;;30.27;27.83;;;;;;;;;;5115198;28;20047;-83
2023/05/09 02:37:15;;;;;;;32.22;29.40;;;;;;;;;;5098654;28;20047;-83
2023/05/09 02:39:41;;;;;;;28.80;26.55;;;;;;;;;;5115208;28;20057;-83
2023/05/09 02:42:11;;;;;;;28.80;26.30;;;;;;;;;;5116312;28;20098;-83
2023/05/09 02:44:40;;;;;;;26.83;24.65;;;;;;;;;;5114778;28;20073;-83
2023/05/09 02:47:06;;;;;;;31.73;29.05;;;;;;;;;;5098217;28;20135;-83
2023/05/09 02:49:32;;;;;;;27.50;25.23;;;;;;;;;;5116926;28;20110;-83
2023/05/09 02:51:59;;;;;;;25.83;23.83;;;;;;;;;;5115114;28;20047;-83
2023/05/09 02:54:25;;;;;;;24.17;22.27;;;;;;;;;;5114891;28;20048;-83
2023/05/09 02:56:51;;;;;;;26.25;24.25;;;;;;;;;;5116019;28;20077;-83
2023/05/09 02:59:19;;;;;;;26.75;24.63;;;;;;;;;;5114804;28;20044;-83
2023/05/09 03:01:45;;;;;;;26.23;24.13;;;;;;;;;;5114997;28;20044;-83
2023/05/09 03:04:11;;;;;;;23.92;22.08;;;;;;;;;;5115910;28;20035;-83
2023/05/09 03:06:37;;;;;;;23.33;21.60;;;;;;;;;;5114637;28;20043;-83
2023/05/09 03:09:03;;;;;;;24.13;22.17;;;;;;;;;;5114866;28;20039;-83
2023/05/09 03:11:29;;;;;;;24.60;22.60;;;;;;;;;;5097845;28;20044;-83
2023/05/09 03:13:56;;;;;;;24.30;22.48;;;;;;;;;;5114556;28;20042;-83
2023/05/09 03:16:22;;;;;;;22.77;20.98;;;;;;;;;;5098500;28;20051;-83
2023/05/09 03:18:48;;;;;;;23.73;21.77;;;;;;;;;;5097313;28;20118;-83
2023/05/09 03:21:14;;;;;;;23.45;21.75;;;;;;;;;;5081414;28;20410;-83
2023/05/09 03:23:40;;;;;;;22.45;20.60;;;;;;;;;;5114284;28;20477;-83
2023/05/09 03:26:06;;;;;;;21.33;19.65;;;;;;;;;;5115321;28;20094;-83
2023/05/09 03:28:32;;;;;;;23.10;21.30;;;;;;;;;;5114458;28;20087;-84
2023/05/09 03:30:59;;;;;;;22.02;20.33;;;;;;;;;;5097364;28;20043;-83
2023/05/09 03:33:25;;;;;;;23.25;21.45;;;;;;;;;;5097582;28;20469;-83
2023/05/09 03:35:51;;;;;;;22.50;20.77;;;;;;;;;;5114578;28;20044;-84
2023/05/09 03:38:17;;;;;;;21.70;19.92;;;;;;;;;;5115549;28;20447;-83
2023/05/09 03:40:43;;;;;;;22.15;20.55;;;;;;;;;;5115441;28;20057;-83
2023/05/09 03:43:09;;;;;;;22.52;20.77;;;;;;;;;;5115513;28;20054;-83
2023/05/09 03:45:37;;;;;;;23.55;21.83;;;;;;;;;;5114675;28;20096;-83
2023/05/09 03:48:07;;;;;;;23.35;21.45;;;;;;;;;;5116362;28;20597;-83
2023/05/09 03:50:33;;;;;;;22.10;20.50;;;;;;;;;;5100116;28;20538;-83
2023/05/09 03:52:59;;;;;;;22.85;21.13;;;;;;;;;;5100646;28;20044;-82
2023/05/09 03:55:25;;;;;;;22.20;20.33;;;;;;;;;;5117280;28;20086;-83
2023/05/09 03:57:51;;;;;;;23.73;21.83;;;;;;;;;;5097443;28;20047;-83
2023/05/09 04:00:17;;;;;;;21.65;19.88;;;;;;;;;;5080194;28;20043;-83
2023/05/09 04:02:43;;;;;;;21.30;19.67;;;;;;;;;;5096920;28;20083;-83
2023/05/09 04:05:09;;;;;;;23.80;22.00;;;;;;;;;;5113704;28;20054;-83
2023/05/09 04:07:35;;;;;;;24.02;22.02;;;;;;;;;;5113518;28;20126;-83
2023/05/09 04:10:01;;;;;;;22.50;20.73;;;;;;;;;;5096648;28;20131;-84
2023/05/09 04:12:27;;;;;;;22.23;20.63;;;;;;;;;;5113397;28;20489;-83
2023/05/09 04:14:54;;;;;;;21.42;19.88;;;;;;;;;;5113476;28;20048;-83
2023/05/09 04:17:20;;;;;;;21.40;19.80;;;;;;;;;;5096050;28;20062;-83
2023/05/09 04:19:46;;;;;;;23.90;21.80;;;;;;;;;;5113165;28;20055;-84
2023/05/09 04:22:12;;;;;;;24.48;22.48;;;;;;;;;;5113093;28;20044;-84
2023/05/09 04:24:38;;;;;;;25.73;23.55;;;;;;;;;;5079802;28;20050;-84
2023/05/09 04:27:04;;;;;;;23.70;21.83;;;;;;;;;;5113516;28;20128;-83
2023/05/09 04:29:31;;;;;;;23.52;21.58;;;;;;;;;;5096879;28;20051;-83
2023/05/09 04:31:57;;;;;;;23.77;21.85;;;;;;;;;;5097516;28;20053;-83
2023/05/09 04:34:25;;;;;;;25.70;23.48;;;;;;;;;;5096920;28;20052;-84
2023/05/09 04:36:51;;;;;;;25.95;23.80;;;;;;;;;;5114116;28;20055;-83
2023/05/09 04:39:18;;;;;;;23.38;21.55;;;;;;;;;;5112849;28;20533;-83
2023/05/09 04:41:46;;;;;;;24.55;22.63;;;;;;;;;;5113585;28;20079;-83
2023/05/09 04:44:16;;;;;;;24.50;22.52;;;;;;;;;;5096559;28;20484;-83
2023/05/09 04:46:42;;;;;;;24.88;22.98;;;;;;;;;;5113134;28;20048;-84
2023/05/09 04:49:08;;;;;;;25.00;22.80;;;;;;;;;;5097161;28;20048;-83
2023/05/09 04:51:34;;;;;;;25.77;23.77;;;;;;;;;;5114162;28;20492;-83
2023/05/09 04:54:00;;;;;;;24.75;22.85;;;;;;;;;;5113710;28;20047;-83
2023/05/09 04:56:26;;;;;;;26.60;24.50;;;;;;;;;;5113917;28;20083;-83
2023/05/09 04:58:52;;;;;;;25.02;23.13;;;;;;;;;;5114566;28;20043;-83
2023/05/09 05:01:19;;;;;;;24.88;22.70;;;;;;;;;;5113306;28;20048;-83
2023/05/09 05:03:45;;;;;;;24.48;22.65;;;;;;;;;;5095771;28;20051;-83
2023/05/09 05:06:11;;;;;;;25.40;23.40;;;;;;;;;;5096591;28;20043;-83
2023/05/09 05:08:37;;;;;;;24.25;22.25;;;;;;;;;;5117171;28;20070;-83
2023/05/09 05:11:03;;;;;;;24.48;22.42;;;;;;;;;;5117035;28;20137;-83
2023/05/09 05:13:29;;;;;;;24.15;22.33;;;;;;;;;;5116924;28;20044;-83
2023/05/09 05:15:55;;;;;;;23.90;21.98;;;;;;;;;;5117893;28;20044;-83
2023/05/09 05:18:21;;;;;;;24.70;22.70;;;;;;;;;;5100356;28;20081;-83
2023/05/09 05:20:47;;;;;;;24.80;22.77;;;;;;;;;;5117729;28;20484;-83
2023/05/09 05:23:13;;;;;;;25.60;23.30;;;;;;;;;;5117892;28;20429;-83
2023/05/09 05:25:39;;;;;;;24.08;22.23;;;;;;;;;;5100008;28;20056;-83
2023/05/09 05:28:05;;;;;;;25.13;23.10;;;;;;;;;;5100577;28;20094;-83
2023/05/09 05:30:32;;;;;;;24.77;22.77;;;;;;;;;;5099650;28;20044;-83
2023/05/09 05:32:58;;;;;;;25.50;23.50;;;;;;;;;;5116446;28;20541;-83
2023/05/09 05:35:24;;;;;;;25.38;23.25;;;;;;;;;;5117191;28;20042;-83
2023/05/09 05:37:50;;;;;;;25.23;23.38;;;;;;;;;;5116950;28;20051;-84
2023/05/09 05:40:16;;;;;;;25.58;23.40;;;;;;;;;;5116673;28;20396;-83
2023/05/09 05:42:43;;;;;;;25.80;23.63;;;;;;;;;;5116316;28;20433;-83
2023/05/09 05:45:09;;;;;;;24.90;22.95;;;;;;;;;;5117506;28;20127;-83
2023/05/09 05:47:36;;;;;;;26.02;23.98;;;;;;;;;;5100438;28;20051;-83
2023/05/09 05:50:03;;;;;;;26.33;24.13;;;;;;;;;;5116787;28;20051;-83
2023/05/09 05:52:29;;;;;;;25.90;23.92;;;;;;;;;;5116200;28;20047;-83
2023/05/09 05:54:55;;;;;;;28.48;26.10;;;;;;;;;;5116876;28;20047;-85
2023/05/09 05:57:22;;;;;;;26.00;23.77;;;;;;;;;;5116256;28;20058;-83
2023/05/09 05:59:48;;;;;;;26.23;24.15;;;;;;;;;;5117214;28;20085;-82
2023/05/09 06:02:15;;;;;;;26.80;24.55;;;;;;;;;;5116179;28;20047;-81
2023/05/09 06:04:41;;;;;;;26.98;24.77;;;;;;;;;;5082398;28;20105;-81
2023/05/09 06:07:07;;;;;;;27.50;25.23;;;;;;;;;;5116809;28;20047;-81
2023/05/09 06:09:34;;;;;;;28.30;25.75;;;;;;;;;;5116910;28;20055;-81
2023/05/09 06:12:00;;;;;;;28.17;25.90;;;;;;;;;;5115937;28;20051;-83
2023/05/09 06:14:26;;;;;;;27.25;25.02;;;;;;;;;;5117070;28;20471;-81
2023/05/09 06:16:52;;;;;;;28.58;26.17;;;;;;;;;;5116693;28;20390;-81
2023/05/09 06:19:18;;;;;;;28.17;25.85;;;;;;;;;;5115928;28;20039;-82
2023/05/09 06:21:44;;;;;;;29.20;26.50;;;;;;;;;;5098701;28;20050;-82
2023/05/09 06:24:10;;;;;;;29.00;26.33;;;;;;;;;;5116023;28;20043;-83
2023/05/09 06:26:37;;;;;;;30.67;27.92;;;;;;;;;;5099632;28;20089;-82
2023/05/09 06:29:05;;;;;;;30.70;27.77;;;;;;;;;;5098726;28;20055;-82
2023/05/09 06:31:31;;;;;;;29.92;27.08;;;;;;;;;;5115657;28;20043;-81
2023/05/09 06:33:58;;;;;;;30.00;27.30;;;;;;;;;;5115365;28;20383;-82
2023/05/09 06:36:24;;;;;;;31.00;28.15;;;;;;;;;;5116334;28;20048;-82
2023/05/09 06:38:50;;;;;;;30.85;28.00;;;;;;;;;;5115228;28;20058;-83
2023/05/09 06:41:16;;;;;;;31.08;28.33;;;;;;;;;;5098773;28;20062;-83
2023/05/09 06:43:42;;;;;;;30.95;27.85;;;;;;;;;;5098435;28;20044;-83
2023/05/09 06:46:08;;;;;;;31.90;28.75;;;;;;;;;;5115850;28;20043;-83
2023/05/09 06:48:34;;;;;;;32.28;28.90;;;;;;;;;;5115003;28;20122;-83
2023/05/09 06:51:00;;;;;;;31.80;28.67;;;;;;;;;;5115269;28;20126;-83
2023/05/09 06:53:26;;;;;;;33.20;29.95;;;;;;;;;;5115826;28;20051;-83
2023/05/09 06:55:52;;;;;;;34.78;31.38;;;;;;;;;;5116694;28;20048;-83
2023/05/09 06:58:19;;;;;;;34.08;30.63;;;;;;;;;;5114981;28;20043;-83
2023/05/09 07:00:46;;;;;;;35.35;31.55;;;;;;;;;;5098006;28;20089;-83
2023/05/09 07:03:12;;;;;;;32.83;29.70;;;;;;;;;;5115054;28;20395;-83
2023/05/09 07:05:38;;;;;;;35.63;31.92;;;;;;;;;;5115317;28;20054;-83
2023/05/09 07:08:04;;;;;;;33.97;30.58;;;;;;;;;;5114935;28;20091;-83
2023/05/09 07:10:30;;;;;;;36.60;32.85;;;;;;;;;;5114879;28;20093;-83
2023/05/09 07:12:56;;;;;;;33.55;30.33;;;;;;;;;;5114831;28;20102;-83
2023/05/09 07:15:23;;;;;;;35.45;32.15;;;;;;;;;;5098393;28;20414;-83
2023/05/09 07:17:49;;;;;;;36.28;32.50;;;;;;;;;;5116263;28;20047;-83
2023/05/09 07:20:15;;;;;;;36.92;33.47;;;;;;;;;;5114683;28;20076;-83
2023/05/09 07:22:41;;;;;;;36.33;32.60;;;;;;;;;;5114854;28;20101;-83
2023/05/09 07:25:07;;;;;;;14.15;10.48;;;;;;;;;;5114134;28;20055;-83
2023/05/09 07:27:34;;;;;;;17.50;7.30;;;;;;;;;;5114283;28;20065;-83
2023/05/09 07:30:00;;;;;;;12.15;6.25;;;;;;;;;;5114246;28;20121;-84
2023/05/09 07:32:27;;;;;;;11.95;6.30;;;;;;;;;;5114473;28;20475;-85
2023/05/09 07:34:54;;;;;;;12.95;6.03;;;;;;;;;;5080699;28;20164;-84
2023/05/09 07:37:20;;;;;;;13.25;4.88;;;;;;;;;;5114328;28;20116;-84
2023/05/09 07:39:46;;;;;;;12.18;5.55;;;;;;;;;;5115124;28;20438;-84
2023/05/09 07:42:12;;;;;;;12.10;5.25;;;;;;;;;;5116049;28;20070;-84
2023/05/09 07:44:39;;;;;;;13.75;6.15;;;;;;;;;;5098101;28;20054;-84
2023/05/09 07:47:05;;;;;;;13.75;5.95;;;;;;;;;;5097313;28;20077;-84
2023/05/09 07:49:31;;;;;;;18.40;9.82;;;;;;;;;;5097590;28;20475;-84
2023/05/09 07:51:57;;;;;;;18.20;8.93;;;;;;;;;;5081178;28;20048;-84
2023/05/09 07:54:23;;;;;;;18.15;8.48;;;;;;;;;;5113940;28;20040;-84
2023/05/09 07:56:49;;;;;;;36.38;32.78;;;;;;;;;;5114882;28;20376;-84
2023/05/09 07:59:17;;;;;;;38.63;34.63;;;;;;;;;;5114056;28;20086;-84
2023/05/09 08:01:43;;;;;;;37.47;33.45;;;;;;;;;;5114054;28;20505;-84
2023/05/09 08:04:09;;;;;;;50.13;36.17;;;;;;;;;;5080148;28;20055;-84
2023/05/09 08:06:35;;;;;;;37.70;33.88;;;;;;;;;;5096966;28;20492;-84
2023/05/09 08:09:01;;;;;;;38.38;34.38;;;;;;;;;;5113878;28;20035;-84
2023/05/09 08:11:27;;;;;;;37.78;33.88;;;;;;;;;;5114726;28;20369;-84
2023/05/09 08:13:54;;;;;;;38.65;34.60;;;;;;;;;;5114617;28;20096;-84
2023/05/09 08:16:20;;;;;;;37.78;34.08;;;;;;;;;;5114035;28;20047;-84
2023/05/09 08:18:46;;;;;;;37.08;33.30;;;;;;;;;;5114673;28;20047;-84
2023/05/09 08:21:12;;;;;;;37.95;33.95;;;;;;;;;;5114603;28;20051;-84
2023/05/09 08:23:40;;;;;;;38.05;33.72;;;;;;;;;;5097346;28;20047;-84
2023/05/09 08:26:06;;;;;;;37.10;32.92;;;;;;;;;;5113514;28;20056;-84
2023/05/09 08:28:32;;;;;;;38.03;34.25;;;;;;;;;;5096820;28;20056;-84
2023/05/09 08:30:58;;;;;;;36.55;32.83;;;;;;;;;;5113643;28;20103;-84
2023/05/09 08:33:24;;;;;;;36.50;32.35;;;;;;;;;;5113261;28;20043;-84
2023/05/09 08:35:51;;;;;;;36.90;32.95;;;;;;;;;;5113558;28;20387;-84
2023/05/09 08:38:17;;;;;;;35.33;31.60;;;;;;;;;;5113227;28;20097;-84
2023/05/09 08:40:43;;;;;;;35.97;32.10;;;;;;;;;;5112963;28;20051;-84
2023/05/09 08:43:10;;;;;;;36.30;32.60;;;;;;;;;;5080079;28;20070;-84
2023/05/09 08:45:42;;;;;;;35.33;31.80;;;;;;;;;;5097254;28;20040;-84
2023/05/09 08:48:10;;;;;;;37.75;33.85;;;;;;;;;;5114774;28;20139;-84
2023/05/09 08:50:36;;;;;;;36.50;32.60;;;;;;;;;;5079756;28;20130;-84
2023/05/09 08:53:02;;;;;;;37.60;33.65;;;;;;;;;;5112887;28;20044;-84
2023/05/09 08:55:29;;;;;;;37.08;33.20;;;;;;;;;;5114263;28;20079;-84
2023/05/09 08:57:55;;;;;;;36.58;32.88;;;;;;;;;;5113368;28;20384;-84
2023/05/09 09:00:21;;;;;;;38.00;34.13;;;;;;;;;;5114018;28;20052;-84
2023/05/09 09:02:47;;;;;;;37.83;32.50;;;;;;;;;;5096592;28;20130;-84
2023/05/09 09:05:13;;;;;;;36.17;32.58;;;;;;;;;;5114034;28;20122;-87
2023/05/09 09:07:40;;;;;;;34.72;31.20;;;;;;;;;;5113934;28;20082;-84
2023/05/09 09:10:07;;;;;;;35.03;31.42;;;;;;;;;;5114841;28;20050;-83
2023/05/09 09:12:34;;;;;;;34.53;31.23;;;;;;;;;;5113491;28;20043;-83
2023/05/09 09:15:03;;;;;;;34.60;30.98;;;;;;;;;;5114487;28;20051;-84
2023/05/09 09:17:30;;;;;;;33.88;30.27;;;;;;;;;;5096836;28;20039;-83
2023/05/09 09:19:59;;;;;;;33.15;29.98;;;;;;;;;;5113911;28;20086;-84
2023/05/09 09:22:31;;;;;;;33.60;30.30;;;;;;;;;;5112770;28;20062;-84
2023/05/09 09:24:58;;;;;;;33.20;29.98;;;;;;;;;;5113267;28;20395;-84
2023/05/09 09:27:25;;;;;;;32.58;29.17;;;;;;;;;;5112976;28;20040;-84
2023/05/09 09:29:51;;;;;;;33.35;30.05;;;;;;;;;;5095981;28;20087;-84
2023/05/09 09:32:18;;;;;;;34.08;30.70;;;;;;;;;;5112400;28;20487;-84
2023/05/09 09:34:44;;;;;;;34.75;31.35;;;;;;;;;;5113712;28;20105;-83
2023/05/09 09:37:21;;;;;;;30.90;27.80;;;;;;;;;;5113164;28;20047;-84
2023/05/09 09:39:54;;;;;;;32.38;29.27;;;;;;;;;;5112355;28;20198;-83
2023/05/09 09:42:22;;;;;;;32.20;28.95;;;;;;;;;;5112855;28;20094;-84
2023/05/09 09:45:04;;;;;;;33.85;30.50;;;;;;;;;;5113755;28;20054;-84
2023/05/09 09:47:33;;;;;;;32.72;29.58;;;;;;;;;;5113019;28;20070;-83
2023/05/09 09:50:08;;;;;;;31.17;28.35;;;;;;;;;;5096748;28;20039;-83
2023/05/09 09:52:34;;;;;;;33.15;29.60;;;;;;;;;;5113722;28;20142;-84
2023/05/09 09:55:01;;;;;;;33.47;30.20;;;;;;;;;;5117023;28;20040;-84
2023/05/09 09:57:35;;;;;;;31.55;28.35;;;;;;;;;;5116491;28;20048;-83
2023/05/09 10:00:01;;;;;;;31.23;28.27;;;;;;;;;;5116390;28;20047;-83
2023/05/09 10:02:27;;;;;;;30.77;27.88;;;;;;;;;;5117243;28;20087;-83
2023/05/09 10:04:53;;;;;;;31.48;28.38;;;;;;;;;;5116119;28;20059;-83
2023/05/09 10:07:24;;;;;;;30.50;27.70;;;;;;;;;;5116995;28;20051;-84
2023/05/09 10:09:50;;;;;;;31.13;28.10;;;;;;;;;;5116374;28;20051;-83
2023/05/09 10:12:18;;;;;;;30.45;27.67;;;;;;;;;;5117732;28;20044;-84
2023/05/09 10:14:45;;;;;;;28.85;26.25;;;;;;;;;;5116307;28;20036;-85
2023/05/09 10:17:13;;;;;;;31.77;28.63;;;;;;;;;;5098918;28;20051;-83
2023/05/09 10:19:43;;;;;;;30.42;27.67;;;;;;;;;;5116685;28;20050;-84
2023/05/09 10:22:10;;;;;;;28.60;25.80;;;;;;;;;;5117839;28;20048;-83
2023/05/09 10:24:41;;;;;;;29.70;26.92;;;;;;;;;;5115659;28;20043;-84
2023/05/09 10:27:11;;;;;;;29.30;26.70;;;;;;;;;;5098890;28;20079;-84
2023/05/09 10:29:39;;;;;;;30.30;27.40;;;;;;;;;;5116636;27;20043;-83
2023/05/09 10:32:11;;;;;;;31.30;28.42;;;;;;;;;;5115964;28;20425;-84
2023/05/09 10:34:39;;;;;;;34.22;31.02;;;;;;;;;;5116328;28;20444;-84
2023/05/09 10:37:06;;;;;;;32.08;29.05;;;;;;;;;;5115555;28;20077;-84
2023/05/09 10:39:32;;;;;;;30.35;27.50;;;;;;;;;;5114866;28;20056;-83
2023/05/09 10:41:59;;;;;;;32.65;29.55;;;;;;;;;;5099322;28;20044;-83
2023/05/09 10:44:26;;;;;;;30.77;27.75;;;;;;;;;;5115735;28;20050;-83
2023/05/09 10:46:52;;;;;;;32.03;29.02;;;;;;;;;;5116368;28;20112;-83
2023/05/09 10:49:19;;;;;;;31.45;28.45;;;;;;;;;;5116229;28;20046;-83
2023/05/09 10:51:45;;;;;;;31.67;28.63;;;;;;;;;;5116207;28;20040;-83
2023/05/09 10:54:15;;;;;;;30.20;27.45;;;;;;;;;;5114710;28;20484;-83
2023/05/09 10:56:41;;;;;;;32.45;29.20;;;;;;;;;;5116224;28;20054;-83
2023/05/09 10:59:27;;;;;;;33.70;30.52;;;;;;;;;;5115104;28;20104;-84
2023/05/09 11:01:59;;;;;;;32.58;29.60;;;;;;;;;;5114953;28;20046;-83
2023/05/09 11:04:25;;;;;;;33.60;30.40;;;;;;;;;;5115558;28;20425;-83
2023/05/09 11:06:52;;;;;;;35.55;32.15;;;;;;;;;;5114981;28;20368;-83
2023/05/09 11:09:28;;;;;;;37.22;33.35;;;;;;;;;;5115119;28;20406;-83
2023/05/09 11:11:59;;;;;;;36.25;32.92;;;;;;;;;;5098678;28;20047;-83
2023/05/09 11:14:37;;;;;;;36.85;33.20;;;;;;;;;;5097733;28;20093;-83
2023/05/09 11:17:05;;;;;;;35.30;31.92;;;;;;;;;;5097780;28;20043;-83
2023/05/09 11:19:35;;;;;;;34.95;31.73;;;;;;;;;;5115587;28;20054;-83
2023/05/09 11:22:04;;;;;;;33.60;30.48;;;;;;;;;;5115551;28;20093;-83
2023/05/09 11:24:31;;;;;;;35.38;32.03;;;;;;;;;;5114671;28;20048;-84
2023/05/09 11:26:57;;;;;;;36.08;32.67;;;;;;;;;;5113981;28;20048;-84
2023/05/09 11:29:27;;;;;;;34.45;31.15;;;;;;;;;;5114523;28;20130;-83
2023/05/09 11:32:08;;;;;;;35.47;31.90;;;;;;;;;;5115335;28;20151;-83
2023/05/09 11:34:34;;;;;;;31.60;28.60;;;;;;;;;;5097274;28;20123;-83
2023/05/09 11:37:10;;;;;;;30.75;27.92;;;;;;;;;;5114718;28;20044;-83
2023/05/09 11:39:55;;;;;;;31.17;28.17;;;;;;;;;;5113748;28;20047;-83
2023/05/09 11:42:22;;;;;;;31.45;28.45;;;;;;;;;;5114639;28;20097;-83
2023/05/09 11:44:49;;;;;;;31.55;28.45;;;;;;;;;;5114508;28;20044;-83
2023/05/09 11:47:16;;;;;;;33.67;30.50;;;;;;;;;;5115414;28;20044;-83
2023/05/09 11:49:42;;;;;;;31.08;28.10;;;;;;;;;;5113855;28;20095;-83
2023/05/09 11:52:09;;;;;;;31.65;28.65;;;;;;;;;;5115060;28;20048;-83
2023/05/09 11:54:38;;;;;;;28.45;25.90;;;;;;;;;;5114919;28;20477;-83
2023/05/09 11:57:04;;;;;;;30.25;27.15;;;;;;;;;;5113811;28;20092;-83
2023/05/09 11:59:31;;;;;;;29.15;26.42;;;;;;;;;;5113995;28;20050;-83
2023/05/09 12:02:02;;;;;;;33.03;29.83;;;;;;;;;;5113888;28;20047;-83
2023/05/09 12:04:30;;;;;;;32.95;30.05;;;;;;;;;;5097778;28;20044;-83
2023/05/09 12:06:58;;;;;;;34.30;30.83;;;;;;;;;;5113996;28;20181;-83
2023/05/09 12:09:25;;;;;;;34.65;31.40;;;;;;;;;;5113679;28;20051;-83
2023/05/09 12:11:51;;;;;;;33.03;29.77;;;;;;;;;;5080939;28;20147;-83
2023/05/09 12:14:31;;;;;;;32.97;29.58;;;;;;;;;;5113430;28;20043;-83
2023/05/09 12:16:57;;;;;;;34.22;31.02;;;;;;;;;;5112942;28;20039;-83
2023/05/09 12:19:26;;;;;;;33.85;30.65;;;;;;;;;;5114276;28;20062;-83
2023/05/09 12:21:58;;;;;;;34.97;31.58;;;;;;;;;;5114454;28;20086;-84
2023/05/09 12:24:28;;;;;;;33.42;30.23;;;;;;;;;;5113270;28;20039;-83
2023/05/09 12:26:55;;;;;;;34.83;31.48;;;;;;;;;;5113358;28;20104;-84
2023/05/09 12:29:21;;;;;;;34.47;31.17;;;;;;;;;;5097373;28;20100;-84
2023/05/09 12:31:48;;;;;;;34.70;31.25;;;;;;;;;;5114759;28;20050;-83
2023/05/09 12:34:15;;;;;;;36.35;33.08;;;;;;;;;;5114113;28;20085;-84
2023/05/09 12:36:52;;;;;;;36.72;33.13;;;;;;;;;;5114363;28;20496;-83
2023/05/09 12:39:21;;;;;;;51.88;46.47;;;;;;;;;;5114471;28;20105;-83
2023/05/09 12:41:47;;;;;;;57.20;51.17;;;;;;;;;;5113359;28;20054;-84
2023/05/09 12:44:21;;;;;;;58.90;52.72;;;;;;;;;;5114238;28;20043;-83
2023/05/09 12:47:13;;;;;;;58.33;52.00;;;;;;;;;;5113062;28;20047;-84
2023/05/09 12:49:39;;;;;;;59.85;53.65;;;;;;;;;;5109253;28;20087;-84
2023/05/09 12:52:15;;;;;;;56.78;50.83;;;;;;;;;;5113238;28;20043;-83
2023/05/09 12:54:45;;;;;;;60.10;53.47;;;;;;;;;;5114205;28;20093;-84
2023/05/09 12:57:21;;;;;;;55.65;48.70;;;;;;;;;;5112871;28;20044;-83
2023/05/09 12:59:47;;;;;;;53.28;47.75;;;;;;;;;;5097151;28;20043;-84
2023/05/09 13:02:13;;;;;;;55.30;49.58;;;;;;;;;;5113916;28;20043;-83
2023/05/09 13:04:40;;;;;;;50.25;44.95;;;;;;;;;;5113502;28;20050;-83
2023/05/09 13:07:09;;;;;;;26.15;23.75;;;;;;;;;;5114166;28;20048;-83
2023/05/09 13:09:36;;;;;;;20.58;18.83;;;;;;;;;;5112765;28;20110;-83
2023/05/09 13:12:03;;;;;;;17.65;16.35;;;;;;;;;;5113929;28;20066;-83
2023/05/09 13:14:29;;;;;;;18.70;17.20;;;;;;;;;;5114540;28;20096;-83
2023/05/09 13:16:55;;;;;;;19.40;17.75;;;;;;;;;;5114057;28;20039;-83
2023/05/09 13:19:21;;;;;;;19.13;17.45;;;;;;;;;;5112736;28;20124;-83
2023/05/09 13:21:47;;;;;;;19.23;17.63;;;;;;;;;;5113014;28;20039;-83
2023/05/09 13:24:16;;;;;;;19.25;17.75;;;;;;;;;;5114527;28;20361;-83
2023/05/09 13:26:42;;;;;;;18.85;17.35;;;;;;;;;;5096470;28;20127;-84
2023/05/09 13:29:08;;;;;;;20.75;18.95;;;;;;;;;;5117431;28;20479;-84
2023/05/09 13:31:34;;;;;;;21.05;19.27;;;;;;;;;;5116601;28;20124;-84
2023/05/09 13:34:00;;;;;;;20.17;18.55;;;;;;;;;;5116726;28;20051;-83
2023/05/09 13:36:26;;;;;;;21.92;19.98;;;;;;;;;;5118329;28;20047;-83
2023/05/09 13:38:52;;;;;;;21.75;20.05;;;;;;;;;;5082877;28;20067;-83
2023/05/09 13:41:22;;;;;;;21.85;19.95;;;;;;;;;;5117771;28;20048;-83
2023/05/09 13:43:49;;;;;;;22.10;20.30;;;;;;;;;;5117028;28;20066;-84
2023/05/09 13:46:15;;;;;;;23.45;21.05;;;;;;;;;;5116901;28;20502;-83
2023/05/09 13:48:41;;;;;;;23.48;21.25;;;;;;;;;;5117678;28;20059;-83
2023/05/09 13:51:07;;;;;;;23.55;21.73;;;;;;;;;;5118320;28;20058;-83
2023/05/09 13:53:33;;;;;;;22.63;20.85;;;;;;;;;;5099353;28;20131;-83
2023/05/09 13:55:59;;;;;;;22.73;20.83;;;;;;;;;;5116046;28;20487;-83
2023/05/09 13:58:25;;;;;;;23.13;21.23;;;;;;;;;;5116294;28;20051;-83
2023/05/09 14:00:51;;;;;;;24.00;22.20;;;;;;;;;;5116251;28;20043;-83
2023/05/09 14:03:17;;;;;;;23.63;21.73;;;;;;;;;;5117164;28;20051;-83
2023/05/09 14:05:43;;;;;;;23.55;21.58;;;;;;;;;;5117105;28;20468;-83
2023/05/09 14:08:09;;;;;;;24.02;22.02;;;;;;;;;;5100003;28;20081;-83
2023/05/09 14:10:36;;;;;;;23.23;21.38;;;;;;;;;;5117141;28;20148;-83
2023/05/09 14:13:02;;;;;;;23.27;21.55;;;;;;;;;;5082261;28;20047;-83
2023/05/09 14:15:28;;;;;;;23.67;21.88;;;;;;;;;;5099738;28;20051;-86
2023/05/09 14:17:55;;;;;;;22.85;21.08;;;;;;;;;;5082565;28;20043;-83